Grindstone City, Michigan
Current Conditions -  °F | °C
As of 9:15 PM on Thursday 20 Nov 2014 (Local Time) from KBAX Reporting Station
Clear Clear  
Wind Chill:   Ceiling: Unl
Heat Index: 18°   Visibility: 10mi
Dew Point: 11°   Wind: 12mph
Humidity: 75%   Direction: 290°WNW
Pressure: 30.04"   Gusts: NA
Location:  44.0077°N, 82.9857°W
Report Text: KBAX 210215Z AUTO 29010KT 10SM CLR M08/M12 A3004 RMK AO2 T10791116
Loading
Personal Weather Stations






























Interactive Weather Map New forecast layout! Learn more

10-Day Weather Forecast

Advertisements
Track Severe Weather on mobile